Bridgewater, Maine
Current Conditions -  °F | °C
As of 2:35 PM on Friday 31 Oct 2014 (Local Time) from KPQI Reporting Station
Overcast Overcast  
Wind Chill:   Ceiling: 6000
Heat Index:   Visibility: 10mi
Dew Point: -2°   Wind: 5mph
Humidity: 57%   Direction: 40°NE
Pressure: 30.04"   Gusts: NA
Location:  46.43°N, 67.84°W
Report Text: KPQI 311835Z AUTO 04004KT 10SM OVC060 06/M02 A3004 RMK AO1
Loading
Personal Weather Stations






























Interactive Weather Map
Tropical Storm Tracking
New forecast layout! Learn more

10-Day Weather Forecast

Advertisements
Track Severe Weather on mobile